Terminal Aerodrome Forecast
Issued by NWS

Home | Current Version | Previous Version | Text Only | Print | Product List | Glossary On
Versions: 1 2 3 4 5 6 7 8 9 10 11 12 13 14 15 16 17 18 19 20 21 22 23 24 25 26 27
000
FTUS41 KOKX 222000 AAA
TAFHPN
TAF AMD
KHPN 222030Z 2221/2318 09006KT P6SM BKN010 OVC020
     FM222300 09008KT 5SM -RA BR SCT004 OVC008
     FM230200 09008KT 2SM -RA BR OVC004
     FM231300 07007KT 2SM -DZ BR OVC004
      AMD NOT SKED=

USA.gov is the U.S. government's official web portal to all federal, state and local government web resources and services.